CheckWX is a tool to help pilots better visualize weather data.  It is not intended as a substitute for an official pre-flight weather briefing.

01:17:02 UTC

CWRX METAR
Rowley Island Airport
Canada
Current

1 hour ago

CWRX 240014Z AUTO 03017KT ////SM //// FEW003 M27/M30 A2969
Observed
Mar-24 @ 00:14 UTC
Wind
  • 030° at 17 KTS
Visibility
Cloud Levels
  • Few at 300' AGL
Temperature
-27°C / -17°F
Dewpoint
-30°C / -22°F
Humidity
76%
Altimeter
29.69" Hg
Pressure
1005.42 hPa
Previous

2 hours ago

CWRX 232300Z AUTO 03018KT ////SM //// NCD M25/M28 A2969
Observed
Mar-23 @ 23:00 UTC
Wind
  • 030° at 18 KTS
Visibility
Cloud Levels
  • Clear skies
Temperature
-25°C / -13°F
Dewpoint
-28°C / -18°F
Humidity
76%
Altimeter
29.69" Hg
Pressure
1005.42 hPa
Previous

3 hours ago

CWRX 232200Z AUTO 02022KT ////SM //// BKN018 OVC025 M24/M27 A2968
Observed
Mar-23 @ 22:00 UTC
Wind
  • 020° at 22 KTS
Visibility
Cloud Levels
  • Broken at 1,800' AGL
  • Overcast at 2,500' AGL
Temperature
-24°C / -11°F
Dewpoint
-27°C / -17°F
Humidity
76%
Altimeter
29.68" Hg
Pressure
1005.12 hPa